Time;durP1;ratioP1;P1;durP2;ratioP2;P2;SDS_P1;SDS_P2;PMS_P1;PMS_P2;Temp;Humidity;BMP_temperature;BMP_pressure;BME280_temperature;BME280_humidity;BME280_pressure;Samples;Min_cycle;Max_cycle;Signal;HPM_P1;HPM_P2
2022/05/16 00:01:48;;;;;;;7.13;4.78;;;;;;;15.20;59.41;94299.53;5064935;28;20041;-80
2022/05/16 00:04:13;;;;;;;10.88;4.95;;;;;;;15.17;59.05;94295.63;5064770;28;20047;-79
2022/05/16 00:06:38;;;;;;;8.95;4.70;;;;;;;15.13;59.10;94293.94;5064750;28;20017;-80
2022/05/16 00:09:04;;;;;;;11.15;4.93;;;;;;;15.08;59.24;94292.22;5064471;28;20163;-80
2022/05/16 00:11:31;;;;;;;17.45;5.72;;;;;;;15.07;59.82;94289.91;5064572;28;20311;-81
2022/05/16 00:13:56;;;;;;;8.85;4.60;;;;;;;15.01;59.93;94284.72;5064453;28;20025;-81
2022/05/16 00:16:22;;;;;;;11.48;4.93;;;;;;;14.99;60.09;94286.94;5064713;28;20020;-81
2022/05/16 00:18:48;;;;;;;9.07;4.75;;;;;;;14.93;60.49;94290.94;5064442;28;20024;-79
2022/05/16 00:21:13;;;;;;;8.18;4.47;;;;;;;14.91;60.41;94285.13;5064364;28;20044;-79
2022/05/16 00:23:39;;;;;;;7.30;4.70;;;;;;;14.93;59.84;94288.28;5064370;28;20017;-79
2022/05/16 00:26:04;;;;;;;9.77;4.60;;;;;;;14.89;59.86;94289.25;5064040;28;20027;-79
2022/05/16 00:28:30;;;;;;;8.52;4.70;;;;;;;14.89;59.92;94295.41;5064266;28;20017;-79
2022/05/16 00:30:55;;;;;;;7.90;4.57;;;;;;;14.87;60.04;94289.59;5064342;28;20016;-80
2022/05/16 00:33:21;;;;;;;9.10;4.32;;;;;;;14.79;60.22;94277.81;5064447;28;20268;-80
2022/05/16 00:35:46;;;;;;;16.38;7.32;;;;;;;14.80;60.23;94286.66;5064159;28;20021;-81
2022/05/16 00:38:12;;;;;;;7.00;3.97;;;;;;;14.78;59.93;94289.66;5063970;28;20021;-81
2022/05/16 00:40:37;;;;;;;7.70;4.63;;;;;;;14.75;60.30;94289.53;5063923;28;20024;-81
2022/05/16 00:43:06;;;;;;;7.00;4.53;;;;;;;14.72;60.54;94290.19;5063943;28;20029;-80
2022/05/16 00:45:32;;;;;;;11.90;6.05;;;;;;;14.70;60.70;94284.38;5064102;28;20078;-81
2022/05/16 00:47:57;;;;;;;11.38;4.72;;;;;;;14.66;60.85;94280.78;5063814;28;20319;-81
2022/05/16 00:50:24;;;;;;;7.55;4.32;;;;;;;14.64;60.66;94283.78;5063863;28;20051;-81
2022/05/16 00:52:51;;;;;;;6.55;4.57;;;;;;;14.55;60.95;94278.47;5063737;28;20021;-81
2022/05/16 00:55:24;;;;;;;6.50;4.32;;;;;;;14.48;61.12;94283.56;5063889;28;20032;-81
2022/05/16 00:57:54;;;;;;;8.93;4.15;;;;;;;14.43;61.40;94286.41;5063784;28;20024;-80
2022/05/16 01:00:31;;;;;;;5.93;3.72;;;;;;;14.40;61.30;94285.19;5063890;28;20200;-80
2022/05/16 01:05:54;;;;;;;7.93;4.15;;;;;;;14.31;61.38;94286.34;5063750;28;20221;-81
2022/05/16 01:08:24;;;;;;;7.45;4.05;;;;;;;14.28;61.38;94278.97;5063459;28;20033;-81
2022/05/16 01:10:53;;;;;;;7.78;4.13;;;;;;;14.26;61.33;94273.94;5063407;28;20028;-80
2022/05/16 01:13:26;;;;;;;7.47;3.90;;;;;;;14.19;61.48;94279.03;5063419;28;20021;-81
2022/05/16 01:15:52;;;;;;;9.68;4.32;;;;;;;14.19;61.79;94276.34;5063533;28;20020;-81
2022/05/16 01:18:21;;;;;;;5.65;3.97;;;;;;;14.13;61.75;94270.38;5045581;28;20100;-80
2022/05/16 01:21:00;;;;;;;6.00;4.07;;;;;;;14.15;61.87;94283.47;5062764;28;20025;-81
2022/05/16 01:23:28;;;;;;;8.65;3.88;;;;;;;14.13;61.91;94275.75;5063142;28;20029;-81
2022/05/16 01:25:54;;;;;;;7.38;3.83;;;;;;;14.08;61.58;94269.78;5063205;28;20029;-80
2022/05/16 01:28:23;;;;;;;6.85;3.50;;;;;;;14.09;61.58;94269.47;5063076;28;20224;-81
2022/05/16 01:30:49;;;;;;;8.73;3.95;;;;;;;14.06;61.36;94275.47;5063135;28;20028;-81
2022/05/16 01:33:20;;;;;;;12.35;3.55;;;;;;;14.04;61.36;94272.31;5063118;28;20558;-81
2022/05/16 01:35:46;;;;;;;5.43;3.25;;;;;;;14.03;61.17;94268.09;5063171;28;20050;-81
2022/05/16 01:38:21;;;;;;;6.43;3.05;;;;;;;14.00;61.34;94279.44;5062931;28;20047;-81
2022/05/16 01:40:58;;;;;;;9.07;4.60;;;;;;;13.98;61.22;94278.97;5062986;28;20025;-81
2022/05/16 01:43:30;;;;;;;7.22;3.75;;;;;;;13.93;61.37;94271.91;5063275;28;20165;-81
2022/05/16 01:45:56;;;;;;;8.52;4.20;;;;;;;13.91;61.57;94273.34;5062949;28;20013;-81
2022/05/16 01:48:22;;;;;;;11.18;4.40;;;;;;;13.90;61.36;94277.13;5063114;28;20040;-81
2022/05/16 01:50:49;;;;;;;7.25;3.97;;;;;;;13.87;60.96;94273.22;5063006;28;20045;-81
2022/05/16 01:53:16;;;;;;;7.57;3.85;;;;;;;13.88;60.77;94280.16;5062838;28;20017;-81
2022/05/16 01:55:41;;;;;;;8.10;4.28;;;;;;;13.87;60.85;94275.13;5062978;28;20223;-81
2022/05/16 01:58:08;;;;;;;11.10;4.03;;;;;;;13.87;61.14;94277.78;5062910;28;20032;-81
2022/05/16 02:00:35;;;;;;;8.02;4.47;;;;;;;13.79;61.85;94276.72;5062918;28;20028;-81
2022/05/16 02:03:02;;;;;;;10.90;3.95;;;;;;;13.76;62.14;94286.19;5062626;28;20093;-80
2022/05/16 02:05:28;;;;;;;8.60;4.97;;;;;;;13.78;62.25;94286.66;5062817;28;20028;-81
2022/05/16 02:07:54;;;;;;;5.97;4.50;;;;;;;13.78;62.32;94286.66;5062694;28;20063;-80
2022/05/16 02:10:22;;;;;;;9.98;3.92;;;;;;;13.80;62.45;94294.38;5062723;28;20092;-80
2022/05/16 02:12:47;;;;;;;10.82;4.22;;;;;;;13.83;62.43;94296.41;5062686;28;20036;-80
2022/05/16 02:15:19;;;;;;;10.38;5.00;;;;;;;13.82;62.81;94290.25;5062454;28;20056;-80
2022/05/16 02:17:45;;;;;;;8.40;4.55;;;;;;;13.82;62.59;94292.94;5062429;28;20096;-79
2022/05/16 02:20:12;;;;;;;7.55;4.55;;;;;;;13.78;62.67;94292.03;5062600;28;20071;-81
2022/05/16 02:25:22;;;;;;;9.80;4.43;;;;;;;13.70;62.92;94290.16;5062376;28;20095;-79
2022/05/16 02:27:52;;;;;;;10.73;4.15;;;;;;;13.65;63.07;94284.97;5062328;28;20025;-79
2022/05/16 02:30:21;;;;;;;20.92;5.32;;;;;;;13.64;62.90;94288.78;5062486;28;20040;-80
2022/05/16 02:32:47;;;;;;;6.43;3.65;;;;;;;13.59;63.05;94291.59;5063812;28;20028;-80
2022/05/16 02:35:13;;;;;;;6.90;4.38;;;;;;;13.53;63.19;94290.22;5066403;28;20264;-80
2022/05/16 02:37:38;;;;;;;8.60;4.00;;;;;;;13.49;63.36;94275.91;5066382;28;20052;-80
2022/05/16 02:40:05;;;;;;;5.78;3.67;;;;;;;13.41;63.48;94291.69;5066278;28;20035;-79
2022/05/16 02:42:31;;;;;;;4.85;3.58;;;;;;;13.40;63.50;94292.78;5066159;28;20243;-79
2022/05/16 02:44:56;;;;;;;8.30;3.75;;;;;;;13.37;63.63;94288.06;5066514;28;20033;-79
2022/05/16 02:47:23;;;;;;;6.88;3.60;;;;;;;13.34;63.54;94283.34;5066109;28;20033;-79
2022/05/16 02:49:49;;;;;;;8.52;4.10;;;;;;;13.35;63.65;94282.25;5066022;28;20394;-79
2022/05/16 02:52:15;;;;;;;6.80;4.05;;;;;;;13.31;63.64;94281.31;5066138;28;20063;-79
2022/05/16 02:54:41;;;;;;;8.50;3.58;;;;;;;13.26;63.78;94265.38;5065895;28;20025;-79
2022/05/16 02:57:08;;;;;;;7.75;4.15;;;;;;;13.23;64.03;94285.56;5066121;28;20025;-80
2022/05/16 02:59:34;;;;;;;5.78;3.33;;;;;;;13.19;63.56;94287.31;5065959;28;20372;-79
2022/05/16 03:02:01;;;;;;;7.50;4.05;;;;;;;13.17;64.00;94284.16;5065802;28;20044;-80
2022/05/16 03:04:27;;;;;;;6.10;4.05;;;;;;;13.17;64.00;94283.38;5066043;28;20096;-80
2022/05/16 03:06:53;;;;;;;9.38;4.22;;;;;;;13.19;63.92;94289.19;5065754;28;20029;-81
2022/05/16 03:09:18;;;;;;;5.35;3.72;;;;;;;13.16;64.25;94282.56;5065420;28;20341;-80
2022/05/16 03:11:44;;;;;;;5.97;3.60;;;;;;;13.14;63.92;94287.47;5065906;28;20158;-80
2022/05/16 03:14:11;;;;;;;9.07;3.40;;;;;;;13.13;64.33;94283.22;5065713;28;20227;-81
2022/05/16 03:16:38;;;;;;;5.78;3.90;;;;;;;13.08;64.36;94277.25;5065680;28;20036;-78
2022/05/16 03:19:04;;;;;;;10.80;4.50;;;;;;;13.11;64.53;94287.31;5065655;28;20096;-78
2022/05/16 03:21:30;;;;;;;8.40;4.22;;;;;;;13.10;64.57;94283.84;5065539;28;20033;-78
2022/05/16 03:23:59;;;;;;;9.50;4.70;;;;;;;13.09;64.42;94282.28;5065438;28;20311;-78
2022/05/16 03:26:24;;;;;;;6.80;3.80;;;;;;;13.10;64.31;94288.41;5065734;28;20021;-78
2022/05/16 03:28:50;;;;;;;7.55;3.60;;;;;;;13.08;64.61;94290.63;5065375;28;20259;-80
2022/05/16 03:31:16;;;;;;;10.98;4.43;;;;;;;13.09;64.31;94292.19;5065182;28;20402;-80
2022/05/16 03:33:41;;;;;;;10.45;4.50;;;;;;;13.07;64.58;94305.09;5065280;28;20192;-80
2022/05/16 03:36:07;;;;;;;6.95;4.32;;;;;;;12.99;64.82;94304.81;5065200;28;20062;-80
2022/05/16 03:41:17;;;;;;;8.20;4.45;;;;;;;12.93;65.33;94303.41;5065388;28;20225;-80
2022/05/16 03:43:42;;;;;;;10.85;4.97;;;;;;;12.95;65.84;94311.91;5064543;28;20029;-80
2022/05/16 03:46:09;;;;;;;6.80;5.07;;;;;;;12.97;66.14;94315.03;5064954;28;20028;-79
2022/05/16 03:48:35;;;;;;;14.18;6.25;;;;;;;12.99;66.69;94310.16;5065011;28;20028;-79
2022/05/16 03:51:02;;;;;;;10.27;6.35;;;;;;;12.99;66.81;94318.19;5065058;28;20317;-79
2022/05/16 03:53:27;;;;;;;11.40;6.95;;;;;;;12.99;67.59;94320.84;5047518;28;20046;-79
2022/05/16 03:55:53;;;;;;;9.23;6.80;;;;;;;12.95;67.95;94330.63;5064865;28;20322;-80
2022/05/16 03:58:19;;;;;;;11.32;7.97;;;;;;;12.99;68.21;94328.09;5064797;28;20033;-80
2022/05/16 04:00:45;;;;;;;12.20;7.30;;;;;;;13.07;68.20;94326.50;5065012;28;20341;-80
2022/05/16 04:03:11;;;;;;;11.85;7.45;;;;;;;13.12;68.16;94329.03;5064872;28;20035;-81
2022/05/16 04:05:37;;;;;;;11.35;7.35;;;;;;;13.19;68.13;94329.34;5064883;28;20331;-80
2022/05/16 04:08:04;;;;;;;19.20;8.57;;;;;;;13.24;68.21;94334.53;5064452;28;20021;-80
2022/05/16 04:10:29;;;;;;;11.55;7.93;;;;;;;13.32;68.30;94339.09;5064654;28;20029;-81
2022/05/16 04:12:55;;;;;;;18.75;9.15;;;;;;;13.36;68.55;94340.03;5064670;28;20334;-80
2022/05/16 04:15:21;;;;;;;21.95;9.68;;;;;;;13.43;68.50;94344.91;5064710;28;20033;-81
2022/05/16 04:17:48;;;;;;;26.80;9.05;;;;;;;13.47;68.73;94337.03;5064513;28;20096;-81
2022/05/16 04:20:14;;;;;;;23.80;9.82;;;;;;;13.54;68.57;94340.00;5064328;28;20127;-80
2022/05/16 04:22:41;;;;;;;17.73;10.20;;;;;;;13.57;68.04;94361.56;5064306;28;20039;-80
2022/05/16 04:25:09;;;;;;;13.30;8.70;;;;;;;13.53;67.71;94352.59;5064263;28;20025;-80
2022/05/16 04:27:35;;;;;;;13.70;8.45;;;;;;;13.56;66.96;94353.88;5064376;28;20025;-80
2022/05/16 04:30:00;;;;;;;14.80;9.32;;;;;;;13.54;67.16;94350.72;5064531;28;20051;-80
2022/05/16 04:32:26;;;;;;;15.52;8.82;;;;;;;13.57;66.82;94345.50;5064862;28;20091;-80
2022/05/16 04:34:52;;;;;;;23.70;10.25;;;;;;;13.56;67.05;94359.22;5063972;28;20073;-80
2022/05/16 04:37:18;;;;;;;13.02;9.20;;;;;;;13.58;67.07;94352.44;5064198;28;20085;-79
2022/05/16 04:39:43;;;;;;;18.42;9.85;;;;;;;13.60;67.65;94357.47;5064171;28;20033;-79
2022/05/16 04:44:52;;;;;;;28.15;10.48;;;;;;;13.78;67.43;94350.97;5063653;28;20031;-78
2022/05/16 04:47:18;;;;;;;18.63;9.77;;;;;;;13.88;67.01;94360.53;5063711;28;20052;-79
2022/05/16 04:49:44;;;;;;;20.98;10.25;;;;;;;13.94;67.09;94358.44;5045810;28;20032;-78
2022/05/16 04:52:11;;;;;;;21.17;11.38;;;;;;;14.03;66.64;94372.63;5063657;28;20441;-79
2022/05/16 04:54:38;;;;;;;14.50;10.00;;;;;;;14.09;66.20;94362.50;5063181;28;20375;-79
2022/05/16 04:57:04;;;;;;;27.98;11.10;;;;;;;14.16;66.13;94368.13;5063242;28;20047;-79
2022/05/16 04:59:29;;;;;;;23.85;10.88;;;;;;;14.17;66.20;94372.41;5063914;28;20016;-81
2022/05/16 05:01:58;;;;;;;18.35;10.68;;;;;;;14.14;66.30;94371.13;5063315;28;20090;-80
2022/05/16 05:04:24;;;;;;;18.58;10.35;;;;;;;14.20;66.16;94374.41;5045695;28;20058;-81
2022/05/16 05:06:49;;;;;;;20.38;11.50;;;;;;;14.21;65.65;94384.06;5063519;28;20239;-80
2022/05/16 05:09:18;;;;;;;21.67;12.15;;;;;;;14.12;66.05;94381.38;5063219;28;20075;-80
2022/05/16 05:14:33;;;;;;;18.23;11.88;;;;;;;14.35;65.68;94378.44;5063648;28;20339;-79
2022/05/16 05:17:03;;;;;;;20.30;11.45;;;;;;;14.43;65.80;94380.28;5063134;28;20078;-79
2022/05/16 05:19:29;;;;;;;21.27;13.50;;;;;;;14.48;65.34;94382.78;5063142;28;20093;-80
2022/05/16 05:21:55;;;;;;;20.25;12.48;;;;;;;14.55;65.31;94385.75;5045233;28;20033;-79
2022/05/16 05:24:20;;;;;;;25.80;12.02;;;;;;;14.66;65.17;94390.78;5062855;28;20032;-80
2022/05/16 05:26:49;;;;;;;32.05;12.00;;;;;;;14.71;64.92;94390.56;5062793;28;20071;-81
2022/05/16 05:29:16;;;;;;;22.98;11.88;;;;;;;14.80;64.64;94391.31;5062963;28;20044;-80
2022/05/16 05:31:42;;;;;;;23.92;12.50;;;;;;;14.83;64.60;94396.00;5063215;28;20200;-80
2022/05/16 05:34:08;;;;;;;26.27;13.88;;;;;;;14.93;64.30;94398.31;5063035;28;20044;-79
2022/05/16 05:36:35;;;;;;;26.25;11.50;;;;;;;15.01;63.87;94392.09;5062790;28;20029;-80
2022/05/16 05:39:01;;;;;;;16.25;11.68;;;;;;;15.10;63.22;94401.97;5063110;28;20075;-81
2022/05/16 05:41:27;;;;;;;21.25;13.63;;;;;;;15.11;63.20;94393.59;5062998;28;20024;-81
2022/05/16 05:43:53;;;;;;;16.60;12.27;;;;;;;15.22;62.68;94397.47;5062965;28;20037;-81
2022/05/16 05:46:19;;;;;;;29.60;13.13;;;;;;;15.30;62.99;94392.34;5062823;28;20021;-81
2022/05/16 05:48:47;;;;;;;23.70;12.23;;;;;;;15.41;63.07;94396.97;5062755;28;20060;-81
2022/05/16 05:51:14;;;;;;;28.30;12.32;;;;;;;15.54;62.93;94388.97;5045138;28;20319;-80
2022/05/16 05:53:41;;;;;;;20.45;12.00;;;;;;;15.64;62.90;94394.69;5062916;28;20024;-80
2022/05/16 05:56:07;;;;;;;19.00;12.70;;;;;;;15.75;62.36;94395.13;5045020;28;20029;-79
2022/05/16 05:58:33;;;;;;;23.40;12.65;;;;;;;15.87;61.96;94388.94;5062796;28;20063;-78
2022/05/16 06:01:00;;;;;;;20.15;11.60;;;;;;;16.01;60.65;94392.13;5062870;28;20330;-78
2022/05/16 06:03:26;;;;;;;28.02;12.73;;;;;;;16.07;61.15;94398.06;5062849;28;20016;-79
2022/05/16 06:06:02;;;;;;;25.83;13.18;;;;;;;16.08;60.92;94385.41;5062552;28;20406;-78
2022/05/16 06:08:28;;;;;;;22.45;12.63;;;;;;;16.10;61.28;94383.97;5049004;28;20108;-79
2022/05/16 06:10:57;;;;;;;20.92;12.10;;;;;;;16.28;62.73;94403.34;5066579;28;20319;-79
2022/05/16 06:13:22;;;;;;;36.67;15.85;;;;;;;16.35;61.67;94395.50;5066844;28;20157;-73
2022/05/16 06:15:48;;;;;;;24.08;11.93;;;;;;;16.48;60.36;94390.91;5066365;28;20087;-76
2022/05/16 06:18:14;;;;;;;24.95;12.32;;;;;;;16.59;59.36;94394.72;5048988;28;20700;-76
2022/05/16 06:20:42;;;;;;;28.65;11.27;;;;;;;16.68;58.51;94388.44;5066669;28;20017;-79
2022/05/16 06:23:07;;;;;;;26.73;12.52;;;;;;;16.72;59.36;94386.63;5066203;28;20024;-76
2022/05/16 06:25:33;;;;;;;25.50;11.18;;;;;;;16.82;59.08;94386.97;5066638;28;20029;-77
2022/05/16 06:28:17;;;;;;;19.60;11.30;;;;;;;16.90;58.47;94382.59;5066582;28;20028;-77
2022/05/16 06:30:45;;;;;;;23.60;12.43;;;;;;;16.95;57.23;94395.81;5066042;28;20036;-77
2022/05/16 06:36:31;;;;;;;16.30;10.73;;;;;;;17.05;56.98;94392.63;4983788;28;20077;-82
2022/05/16 06:39:00;;;;;;;20.15;10.65;;;;;;;17.14;56.26;94397.13;5006314;28;20037;-80
2022/05/16 06:41:27;;;;;;;20.83;10.90;;;;;;;17.18;56.10;94403.41;5066136;28;20029;-83
2022/05/16 06:43:56;;;;;;;23.67;10.07;;;;;;;17.14;56.10;94405.22;5066737;28;20055;-82
2022/05/16 06:46:21;;;;;;;23.52;10.75;;;;;;;17.23;55.45;94395.06;5066486;28;20044;-82
2022/05/16 06:48:58;;;;;;;21.25;10.23;;;;;;;17.31;55.19;94396.84;5066028;28;20434;-84
2022/05/16 06:51:24;;;;;;;19.40;8.30;;;;;;;17.37;55.42;94402.78;5048071;28;20025;-82
2022/05/16 06:53:51;;;;;;;21.65;9.60;;;;;;;17.39;55.12;94398.59;5065951;28;20189;-82
2022/05/16 06:56:19;;;;;;;14.95;9.02;;;;;;;17.26;54.55;94399.78;5066021;28;20021;-83
2022/05/16 06:58:45;;;;;;;19.65;8.43;;;;;;;17.33;54.76;94385.72;5066484;28;20021;-84
2022/05/16 07:01:10;;;;;;;24.55;9.80;;;;;;;17.48;55.03;94394.97;5066292;28;20082;-85
2022/05/16 07:03:38;;;;;;;19.00;8.55;;;;;;;17.51;52.74;94389.69;5067952;28;20126;-85
2022/05/16 07:06:03;;;;;;;14.85;7.57;;;;;;;17.63;51.89;94394.25;5066497;28;20088;-82
2022/05/16 07:08:33;;;;;;;16.67;8.30;;;;;;;17.72;52.31;94392.16;5065429;28;20040;-82
2022/05/16 07:10:59;;;;;;;23.42;7.85;;;;;;;17.86;51.34;94396.41;5065263;28;20056;-83
2022/05/16 07:13:26;;;;;;;12.95;7.60;;;;;;;17.98;51.25;94390.94;5065530;28;20029;-83
2022/05/16 07:15:54;;;;;;;24.48;8.23;;;;;;;18.06;51.24;94390.00;5064357;28;20035;-83
2022/05/16 07:18:20;;;;;;;17.33;7.72;;;;;;;18.18;51.09;94392.59;5064520;28;20017;-83
2022/05/16 07:20:46;;;;;;;15.30;8.50;;;;;;;18.35;50.20;94394.16;5065112;28;20091;-84
2022/05/16 07:23:13;;;;;;;15.60;8.85;;;;;;;18.48;49.54;94394.06;5047491;28;20028;-84
2022/05/16 07:28:23;;;;;;;13.10;8.35;;;;;;;18.34;50.63;94392.59;5065607;28;20087;-86
2022/05/16 07:30:49;;;;;;;17.08;8.30;;;;;;;18.41;50.52;94389.28;5065268;28;20036;-82
2022/05/16 07:33:15;;;;;;;15.38;8.63;;;;;;;18.56;50.55;94393.09;5065632;28;20033;-83
2022/05/16 07:35:50;;;;;;;19.92;8.15;;;;;;;18.63;50.19;94394.03;5066188;28;20056;-82
2022/05/16 07:38:15;;;;;;;16.65;9.18;;;;;;;18.71;49.65;94386.91;5065294;28;20071;-80
2022/05/16 07:40:41;;;;;;;18.25;9.63;;;;;;;18.81;49.17;94389.09;5065723;28;20029;-80
2022/05/16 07:43:06;;;;;;;19.65;9.13;;;;;;;18.87;49.33;94386.09;5065441;28;20039;-83
2022/05/16 07:45:33;;;;;;;17.95;8.75;;;;;;;18.99;49.10;94380.56;5065422;28;20092;-81
2022/05/16 07:48:03;;;;;;;18.17;8.20;;;;;;;19.10;48.38;94373.47;5066537;28;20222;-81
2022/05/16 07:50:30;;;;;;;20.88;7.40;;;;;;;19.19;47.42;94375.97;5065376;28;20036;-82
2022/05/16 07:52:57;;;;;;;11.68;5.45;;;;;;;19.22;43.85;94386.09;5064878;28;20029;-81
2022/05/16 07:55:24;;;;;;;11.52;5.70;;;;;;;19.28;44.47;94384.66;5064653;28;20087;-81
2022/05/16 07:57:50;;;;;;;9.95;5.40;;;;;;;19.28;44.08;94379.25;5064856;28;20086;-81
2022/05/16 08:00:27;;;;;;;15.13;6.15;;;;;;;19.37;44.24;94377.09;5064733;28;20326;-80
2022/05/16 08:02:56;;;;;;;19.73;6.20;;;;;;;19.48;44.45;94379.22;5064724;28;20044;-81
2022/05/16 08:05:24;;;;;;;14.18;4.70;;;;;;;19.55;42.72;94376.69;5064704;28;20025;-82
2022/05/16 08:10:36;;;;;;;18.60;4.75;;;;;;;19.75;42.38;94374.78;5064850;28;20063;-79
2022/05/16 08:13:05;;;;;;;9.70;4.88;;;;;;;19.92;42.08;94378.94;5064791;28;20024;-80
2022/05/16 08:15:33;;;;;;;22.80;4.80;;;;;;;19.99;41.84;94379.06;5064796;28;20035;-81
2022/05/16 08:17:59;;;;;;;12.07;4.28;;;;;;;20.12;40.21;94376.97;5064379;28;20226;-81
2022/05/16 08:20:26;;;;;;;8.30;2.85;;;;;;;20.28;37.48;94382.25;5064145;28;20017;-80
2022/05/16 08:22:52;;;;;;;5.72;2.63;;;;;;;20.29;35.58;94370.25;5064380;28;20031;-81
2022/05/16 08:25:18;;;;;;;5.10;2.35;;;;;;;20.32;35.00;94369.56;5064238;28;20067;-81
2022/05/16 08:27:44;;;;;;;9.95;2.53;;;;;;;20.32;35.50;94364.91;5046495;28;20017;-82
2022/05/16 08:30:11;;;;;;;6.63;2.60;;;;;;;20.42;35.91;94367.00;5064145;28;20017;-82
2022/05/16 08:32:37;;;;;;;9.15;2.33;;;;;;;20.55;35.65;94370.28;5064298;28;20029;-83
2022/05/16 08:35:07;;;;;;;12.13;2.22;;;;;;;20.70;34.75;94365.91;5064420;28;20096;-82
2022/05/16 08:40:19;;;;;;;7.03;2.03;;;;;;;20.79;31.88;94371.84;5064291;28;20028;-81
2022/05/16 08:43:01;;;;;;;4.20;1.77;;;;;;;20.81;32.53;94361.41;5064117;28;20029;-80
2022/05/16 08:45:39;;;;;;;11.05;2.30;;;;;;;20.90;32.70;94357.66;5063825;28;20021;-81
2022/05/16 08:48:09;;;;;;;6.38;2.00;;;;;;;21.06;30.08;94357.47;5064252;28;20224;-80
2022/05/16 08:50:59;;;;;;;4.25;1.40;;;;;;;21.17;30.29;94366.53;5064122;28;20044;-81
2022/05/16 08:53:43;;;;;;;5.05;1.90;;;;;;;21.24;30.89;94347.66;5063587;28;20063;-80
2022/05/16 08:56:14;;;;;;;9.57;1.70;;;;;;;21.33;30.93;94361.72;5063505;28;20017;-79
2022/05/16 08:58:44;;;;;;;8.05;2.00;;;;;;;21.38;31.25;94360.59;5063579;28;20016;-82
2022/05/16 09:01:18;;;;;;;6.70;2.10;;;;;;;21.38;32.14;94355.94;5063597;28;20048;-79
2022/05/16 09:04:12;;;;;;;4.10;1.88;;;;;;;21.42;31.68;94354.09;5063537;28;20035;-79
2022/05/16 09:06:39;;;;;;;5.30;2.97;;;;;;;21.46;28.59;94364.22;5063184;28;20062;-80
2022/05/16 09:09:21;;;;;;;5.70;1.67;;;;;;;21.39;29.53;94348.59;5063619;28;20041;-81
2022/05/16 09:12:05;;;;;;;6.95;1.80;;;;;;;21.47;28.72;94338.63;5063382;28;20028;-81
2022/05/16 09:14:30;;;;;;;5.97;2.13;;;;;;;21.50;28.22;94343.34;5063377;28;20040;-79
2022/05/16 09:17:09;;;;;;;6.75;1.88;;;;;;;21.62;28.22;94362.84;5063286;28;20102;-80
2022/05/16 09:19:47;;;;;;;4.00;1.60;;;;;;;21.77;27.61;94352.91;5063461;28;20257;-80
2022/05/16 09:22:21;;;;;;;4.45;1.63;;;;;;;21.94;27.06;94345.31;5063326;28;20154;-80
2022/05/16 09:25:13;;;;;;;2.70;1.40;;;;;;;22.15;26.69;94345.50;5063241;28;20016;-78
2022/05/16 09:30:27;;;;;;;7.93;1.75;;;;;;;22.11;25.54;94349.34;5063259;28;20170;-79
2022/05/16 09:33:00;;;;;;;4.78;1.95;;;;;;;22.13;24.99;94341.63;5062991;28;20017;-80
2022/05/16 09:35:43;;;;;;;6.85;1.63;;;;;;;22.16;25.61;94340.84;5063165;28;20040;-80
2022/05/16 09:38:08;;;;;;;;;;;;;;;22.27;24.69;94336.34;5063440;28;20024;-80
2022/05/16 09:40:54;;;;;;;6.10;1.50;;;;;;;22.38;24.32;94331.75;5062971;28;20170;-80
2022/05/16 09:43:23;;;;;;;4.93;1.70;;;;;;;22.51;25.25;94328.75;5062989;28;20017;-80
2022/05/16 09:46:01;;;;;;;6.72;1.40;;;;;;;22.62;24.21;94340.47;5062704;28;20025;-80
2022/05/16 09:48:27;;;;;;;2.42;1.10;;;;;;;22.60;22.86;94332.69;5062805;28;20044;-80
2022/05/16 09:51:04;;;;;;;3.45;1.35;;;;;;;22.59;23.31;94324.91;5062876;28;20227;-80
2022/05/16 09:53:36;;;;;;;5.63;1.42;;;;;;;22.69;24.73;94331.56;5062985;28;20016;-80
2022/05/16 09:56:12;;;;;;;3.40;1.45;;;;;;;22.68;24.05;94324.59;5062583;28;20320;-80
2022/05/16 09:58:51;;;;;;;7.28;1.35;;;;;;;22.59;23.89;94309.41;5062644;28;20017;-81
2022/05/16 10:01:34;;;;;;;4.68;2.03;;;;;;;22.66;23.62;94305.94;5062569;28;20021;-81
2022/05/16 10:04:12;;;;;;;4.72;1.40;;;;;;;22.75;23.60;94305.59;5062591;28;20251;-80
2022/05/16 10:06:42;;;;;;;5.57;2.03;;;;;;;22.94;24.37;94305.34;5062725;28;20025;-80
2022/05/16 10:09:14;;;;;;;6.63;1.23;;;;;;;22.96;24.27;94299.50;5062322;28;20032;-80
2022/05/16 10:11:41;;;;;;;8.70;1.58;;;;;;;23.08;25.69;94298.41;5062479;28;20117;-79
2022/05/16 10:14:06;;;;;;;4.05;1.52;;;;;;;23.20;24.49;94293.44;5062749;28;20025;-80
2022/05/16 10:16:35;;;;;;;8.05;1.92;;;;;;;23.23;26.00;94291.88;5062801;28;20123;-80
2022/05/16 10:19:06;;;;;;;6.55;1.77;;;;;;;23.34;25.97;94292.69;5062635;28;20017;-80
2022/05/16 10:21:36;;;;;;;6.97;1.50;;;;;;;23.39;27.28;94286.09;5062486;28;20075;-80
2022/05/16 10:24:07;;;;;;;3.10;1.60;;;;;;;23.45;27.26;94279.13;5061496;28;20045;-80
2022/05/16 10:26:37;;;;;;;7.68;2.08;;;;;;;23.53;27.06;94269.03;5062389;28;20016;-83
2022/05/16 10:29:07;;;;;;;11.50;2.35;;;;;;;23.51;27.49;94288.47;5062318;28;20020;-82
2022/05/16 10:34:37;;;;;;;4.85;1.75;;;;;;;23.36;26.30;94274.03;5062114;28;20258;-81
2022/05/16 10:37:05;;;;;;;5.75;1.70;;;;;;;23.35;26.62;94267.06;5062258;28;20278;-82
2022/05/16 10:39:30;;;;;;;5.43;1.67;;;;;;;23.47;28.40;94267.84;5062296;28;20017;-82
2022/05/16 10:42:08;;;;;;;6.75;1.50;;;;;;;23.51;26.90;94263.19;5062205;28;20027;-81
2022/05/16 10:44:58;;;;;;;10.20;2.22;;;;;;;23.48;27.28;94258.53;5062206;28;20092;-82
2022/05/16 10:48:00;;;;;;;2.88;1.67;;;;;;;23.46;27.11;94263.59;5044406;28;20092;-81
2022/05/16 10:50:42;;;;;;;;;;;;;;;23.50;27.21;94256.97;5062449;28;20092;-84
2022/05/16 10:53:12;;;;;;;4.50;1.67;;;;;;;23.56;27.27;94260.09;5062402;28;19967;-81
2022/05/16 10:55:52;;;;;;;4.97;1.92;;;;;;;23.55;26.82;94256.59;5065981;28;20029;-81
2022/05/16 10:58:49;;;;;;;6.55;2.17;;;;;;;23.60;27.03;94247.28;5066020;28;20042;-81
2022/05/16 11:01:46;;;;;;;3.00;1.70;;;;;;;23.65;26.68;94255.06;5052656;28;20369;-82
2022/05/16 11:04:34;;;;;;;7.15;1.67;;;;;;;23.71;26.11;94239.91;5065754;28;20021;-82
2022/05/16 11:07:30;;;;;;;4.72;1.70;;;;;;;23.88;26.60;94234.91;5065779;28;20215;-82
2022/05/16 11:10:11;;;;;;;5.07;1.98;;;;;;;24.05;27.09;94236.81;5065699;28;20332;-85
2022/05/16 11:13:11;;;;;;;6.13;1.92;;;;;;;24.20;26.63;94237.59;5065863;28;20029;-86
2022/05/16 11:15:43;;;;;;;6.28;1.67;;;;;;;24.21;26.56;94239.91;5047848;28;20062;-86
2022/05/16 11:18:43;;;;;;;5.47;2.07;;;;;;;24.25;26.31;94237.19;5065603;28;20017;-85
2022/05/16 11:21:30;;;;;;;4.45;1.40;;;;;;;24.34;25.72;94236.78;5065513;28;20263;-86
2022/05/16 11:24:19;;;;;;;6.05;1.48;;;;;;;24.28;25.15;94233.69;5065290;28;20012;-82
2022/05/16 11:27:30;;;;;;;17.80;1.90;;;;;;;24.11;25.36;94232.53;5053396;28;20056;-83
2022/05/16 11:30:17;;;;;;;4.57;1.30;;;;;;;24.18;25.29;94235.28;5056529;28;20036;-81
2022/05/16 11:33:01;;;;;;;7.75;1.40;;;;;;;24.19;24.80;94230.59;5065205;28;20021;-83
2022/05/16 11:35:45;;;;;;;6.03;1.50;;;;;;;24.15;24.81;94236.03;5065470;28;20052;-83
2022/05/16 11:39:01;;;;;;;11.10;1.77;;;;;;;24.10;24.93;94244.63;5065190;28;20270;-83
2022/05/16 11:42:25;;;;;;;5.18;1.50;;;;;;;24.18;25.16;94224.38;5031796;28;20025;-82
2022/05/16 11:44:56;;;;;;;5.80;2.08;;;;;;;24.30;24.20;94225.13;4984552;28;20038;-83
2022/05/16 11:47:21;;;;;;;4.65;1.42;;;;;;;24.31;24.89;94224.75;4984391;28;20071;-83
2022/05/16 11:50:07;;;;;;;8.80;1.88;;;;;;;24.46;25.68;94211.84;4984074;28;20039;-83
2022/05/16 11:52:49;;;;;;;5.50;1.40;;;;;;;24.59;23.64;94215.00;4984439;28;20211;-81
2022/05/16 12:01:29;;;;;;;4.93;1.13;;;;;;;24.65;22.91;94207.97;5064804;28;20225;-82
2022/05/16 12:04:24;;;;;;;6.07;1.40;;;;;;;24.69;23.72;94202.47;5064222;28;20039;-81
2022/05/16 12:07:02;;;;;;;5.50;1.30;;;;;;;24.81;22.98;94200.09;5057631;28;20033;-81
2022/05/16 12:09:32;;;;;;;4.03;1.10;;;;;;;24.89;23.34;94195.38;5064413;28;20071;-80
2022/05/16 12:12:11;;;;;;;6.05;1.23;;;;;;;24.90;23.69;94194.22;5064468;28;20033;-79
2022/05/16 12:14:39;;;;;;;9.13;1.30;;;;;;;24.89;23.68;94179.03;5064870;28;20020;-80
2022/05/16 12:17:07;;;;;;;4.53;1.20;;;;;;;25.02;23.01;94177.41;5064840;28;20200;-79
2022/05/16 12:19:38;;;;;;;3.47;1.27;;;;;;;25.32;22.50;94170.66;5064815;28;20025;-88
2022/05/16 12:22:10;;;;;;;8.25;2.28;;;;;;;25.53;22.63;94169.72;5064705;28;20028;-81